createdAt,value
2019-06-27T00:01:45.511Z,49797.03
2019-06-27T00:04:13.969Z,49791.97
2019-06-27T00:06:42.388Z,49772.71
2019-06-27T00:09:11.455Z,49864.94
2019-06-27T00:11:39.859Z,49678.46
2019-06-27T00:14:08.256Z,50115.27
2019-06-27T00:16:36.661Z,49813.25
2019-06-27T00:19:05.150Z,50001.76
2019-06-27T00:21:33.492Z,49594.34
2019-06-27T00:24:01.901Z,50093.99
2019-06-27T00:26:30.315Z,49924.73
2019-06-27T00:28:58.847Z,50122.37
2019-06-27T00:31:27.605Z,49746.36
2019-06-27T00:33:56.016Z,50098.05
2019-06-27T00:36:24.418Z,50129.46
2019-06-27T00:38:52.832Z,50344.34
2019-06-27T00:41:21.242Z,50131.49
2019-06-27T00:43:49.639Z,50408.20
2019-06-27T00:46:18.321Z,50618.03
2019-06-27T00:48:46.706Z,50378.81
2019-06-27T00:51:15.131Z,50495.38
2019-06-27T00:53:43.596Z,50457.87
2019-06-27T00:56:11.994Z,50465.98
2019-06-27T00:58:40.477Z,50448.75
2019-06-27T01:01:09.230Z,50624.11
2019-06-27T01:03:37.643Z,50565.32
2019-06-27T01:06:06.044Z,50849.15
2019-06-27T01:08:34.439Z,50738.66
2019-06-27T01:11:02.960Z,50800.49
2019-06-27T01:13:31.361Z,50865.37
2019-06-27T01:16:00.059Z,50474.09
2019-06-27T01:18:28.555Z,50684.93
2019-06-27T01:20:57.052Z,50496.39
2019-06-27T01:23:25.452Z,50861.32
2019-06-27T01:25:53.874Z,50782.25
2019-06-27T01:28:22.317Z,50844.08
2019-06-27T01:30:50.735Z,50625.13
2019-06-27T01:33:19.150Z,50865.37
2019-06-27T01:35:47.540Z,51115.77
2019-06-27T01:38:15.931Z,51096.51
2019-06-27T01:40:44.334Z,50976.89
2019-06-27T01:43:12.733Z,50598.77
2019-06-27T01:45:45.480Z,51038.73
2019-06-27T01:48:13.874Z,51151.26
2019-06-27T01:50:42.347Z,51385.46
2019-06-27T01:53:10.999Z,51231.35
2019-06-27T01:55:39.407Z,51148.21
2019-06-27T01:58:07.816Z,51565.93
2019-06-27T02:00:36.206Z,51398.64
2019-06-27T02:03:04.753Z,51311.45
2019-06-27T02:05:33.175Z,51379.37
2019-06-27T02:08:01.601Z,51325.64
2019-06-27T02:10:29.989Z,51415.87
2019-06-27T02:12:58.396Z,51197.89
2019-06-27T02:15:26.864Z,51288.13
2019-06-27T02:17:55.368Z,51449.33
2019-06-27T02:20:23.993Z,51557.82
2019-06-27T02:22:52.390Z,51338.82
2019-06-27T02:25:21.838Z,51478.73
2019-06-27T02:28:03.236Z,51388.50
2019-06-27T02:30:26.475Z,51374.30
2019-06-27T02:32:54.908Z,51560.86
2019-06-27T02:35:23.295Z,51142.13
2019-06-27T02:37:51.754Z,51201.95
2019-06-27T02:40:20.467Z,51604.46
2019-06-27T02:42:48.867Z,51534.50
2019-06-27T02:45:17.702Z,51700.78
2019-06-27T02:47:46.115Z,51599.39
2019-06-27T02:50:15.001Z,51654.14
2019-06-27T02:52:43.393Z,51681.52
2019-06-27T02:55:11.871Z,51678.48
2019-06-27T02:57:40.297Z,51609.53
2019-06-27T03:00:08.867Z,51885.33
2019-06-27T03:02:38.027Z,51507.12
2019-06-27T03:05:09.800Z,51719.04
2019-06-27T03:07:38.406Z,51685.57
2019-06-27T03:10:08.905Z,51862.00
2019-06-27T03:12:37.311Z,51991.80
2019-06-27T03:15:10.724Z,51990.79
2019-06-27T03:17:39.130Z,51609.53
2019-06-27T03:20:09.276Z,51847.81
2019-06-27T03:22:37.687Z,51919.80
2019-06-27T03:25:06.327Z,51889.38
2019-06-27T03:27:34.895Z,52051.63
2019-06-27T03:30:04.186Z,51745.40
2019-06-27T03:32:32.581Z,52112.47
2019-06-27T03:35:00.993Z,52118.55
2019-06-27T03:37:29.385Z,51961.38
2019-06-27T03:39:57.884Z,52040.47
2019-06-27T03:42:26.304Z,52146.95
2019-06-27T03:44:54.688Z,51968.48
2019-06-27T03:47:23.106Z,52151.00
2019-06-27T03:49:51.503Z,52044.53
2019-06-27T03:52:19.903Z,52262.55
2019-06-27T03:54:48.307Z,52147.96
2019-06-27T03:57:16.815Z,52132.75
2019-06-27T03:59:45.328Z,52147.96
2019-06-27T04:02:13.712Z,52254.44
2019-06-27T04:04:42.116Z,52249.37
2019-06-27T04:07:10.524Z,52225.03
2019-06-27T04:09:38.926Z,52455.24
2019-06-27T04:12:31.384Z,52402.50
2019-06-27T04:15:01.829Z,52449.15
2019-06-27T04:17:30.456Z,52572.88
2019-06-27T04:19:59.014Z,52387.29
2019-06-27T04:22:27.409Z,52377.15
2019-06-27T04:24:55.818Z,52203.74
2019-06-27T04:27:24.222Z,52291.96
2019-06-27T04:29:52.784Z,52517.10
2019-06-27T04:32:21.188Z,52515.07
2019-06-27T04:34:49.583Z,52515.07
2019-06-27T04:37:18.008Z,52607.36
2019-06-27T04:39:46.441Z,52596.21
2019-06-27T04:42:14.823Z,52524.20
2019-06-27T04:44:43.241Z,52696.61
2019-06-27T04:47:11.645Z,52759.49
2019-06-27T04:49:40.483Z,52629.68
2019-06-27T04:52:09.015Z,52507.97
2019-06-27T04:54:37.423Z,52567.81
2019-06-27T04:57:05.815Z,52413.66
2019-06-27T04:59:51.886Z,52384.25
2019-06-27T05:02:04.472Z,52405.54
2019-06-27T05:04:32.835Z,52608.38
2019-06-27T05:07:01.347Z,52597.22
2019-06-27T05:09:29.876Z,52553.61
2019-06-27T05:11:58.282Z,52381.20
2019-06-27T05:14:26.681Z,52389.32
2019-06-27T05:16:55.088Z,52374.11
2019-06-27T05:19:23.482Z,52319.34
2019-06-27T05:21:51.892Z,52416.70
2019-06-27T05:24:20.657Z,52434.95
2019-06-27T05:26:49.343Z,52387.29
2019-06-27T05:29:17.731Z,52412.64
2019-06-27T05:31:46.144Z,52449.15
2019-06-27T05:34:14.799Z,52297.04
2019-06-27T05:36:43.213Z,52612.43
2019-06-27T05:39:11.605Z,52230.10
2019-06-27T05:41:40.008Z,52175.34
2019-06-27T05:44:08.418Z,52046.56
2019-06-27T05:46:36.809Z,52091.18
2019-06-27T05:49:05.246Z,51689.63
2019-06-27T05:51:33.641Z,51785.96
2019-06-27T05:54:02.046Z,52061.77
2019-06-27T05:56:30.436Z,51703.82
2019-06-27T05:58:58.825Z,51591.28
2019-06-27T06:01:27.238Z,51579.11
2019-06-27T06:03:55.630Z,52271.68
2019-06-27T06:06:24.024Z,52059.74
2019-06-27T06:09:01.246Z,51631.84
2019-06-27T06:11:29.712Z,51786.97
2019-06-27T06:13:58.290Z,51410.80
2019-06-27T06:16:27.094Z,51565.93
2019-06-27T06:18:57.079Z,51357.07
2019-06-27T06:21:25.466Z,51622.71
2019-06-27T06:23:53.865Z,51726.13
2019-06-27T06:26:22.265Z,51536.53
2019-06-27T06:28:50.727Z,52278.78
2019-06-27T06:31:19.068Z,51958.34
2019-06-27T06:33:47.464Z,52211.85
2019-06-27T06:36:15.852Z,52091.18
2019-06-27T06:38:44.256Z,51601.42
2019-06-27T06:41:12.654Z,51446.29
2019-06-27T06:43:41.083Z,50888.69
2019-06-27T06:46:09.635Z,51498.00
2019-06-27T06:48:38.023Z,51445.27
2019-06-27T06:51:06.418Z,51686.59
2019-06-27T06:53:34.820Z,51975.57
2019-06-27T06:56:03.211Z,51776.83
2019-06-27T06:58:31.631Z,51545.65
2019-06-27T07:01:01.891Z,51617.64
2019-06-27T07:03:31.850Z,51365.18
2019-06-27T07:06:00.596Z,51387.48
2019-06-27T07:08:28.934Z,51343.89
2019-06-27T07:10:57.355Z,51341.86
2019-06-27T07:13:25.774Z,51374.30
2019-06-27T07:15:54.477Z,51364.16
2019-06-27T07:18:23.169Z,51323.61
2019-06-27T07:20:51.575Z,51450.34
2019-06-27T07:23:19.968Z,50817.73
2019-06-27T07:25:48.344Z,51038.73
2019-06-27T07:28:16.737Z,51169.51
2019-06-27T07:30:45.144Z,50585.59
2019-06-27T07:33:13.545Z,50704.19
2019-06-27T07:35:41.928Z,50235.89
2019-06-27T07:38:10.331Z,50924.17
2019-06-27T07:40:38.952Z,51320.57
2019-06-27T07:43:07.359Z,50531.87
2019-06-27T07:45:36.005Z,50463.95
2019-06-27T07:48:04.471Z,50865.37
2019-06-27T07:50:32.856Z,50632.22
2019-06-27T07:53:01.273Z,50874.50
2019-06-27T07:55:29.875Z,50716.36
2019-06-27T07:57:58.249Z,50377.79
2019-06-27T08:00:26.800Z,50314.95
2019-06-27T08:02:55.176Z,50655.54
2019-06-27T08:05:23.558Z,50604.85
2019-06-27T08:07:52.205Z,50159.87
2019-06-27T08:10:20.713Z,50406.18
2019-06-27T08:12:49.176Z,50341.30
2019-06-27T08:15:17.615Z,50050.41
2019-06-27T08:17:46.015Z,50115.27
2019-06-27T08:20:14.584Z,50228.79
2019-06-27T08:22:42.979Z,50407.19
2019-06-27T08:25:11.904Z,50211.56
2019-06-27T08:27:40.292Z,49929.80
2019-06-27T08:30:09.192Z,49671.37
2019-06-27T08:32:37.952Z,49757.51
2019-06-27T08:35:07.577Z,49603.46
2019-06-27T08:37:36.045Z,49575.09
2019-06-27T08:40:06.489Z,49395.72
2019-06-27T08:42:35.267Z,49100.84
2019-06-27T08:45:05.581Z,49886.22
2019-06-27T08:47:33.972Z,49218.39
2019-06-27T08:50:02.667Z,48912.37
2019-06-27T08:52:31.107Z,48915.41
2019-06-27T08:54:59.508Z,49365.32
2019-06-27T08:57:28.115Z,49251.82
2019-06-27T08:59:56.747Z,49079.56
2019-06-27T09:02:25.143Z,48603.35
2019-06-27T09:04:53.556Z,49322.76
2019-06-27T09:07:21.945Z,48313.60
2019-06-27T09:09:50.639Z,48396.67
2019-06-27T09:12:19.035Z,47693.64
2019-06-27T09:14:47.427Z,47994.49
2019-06-27T09:17:15.817Z,47738.21
2019-06-27T09:19:44.210Z,48056.28
2019-06-27T09:22:12.866Z,46867.18
2019-06-27T09:24:41.253Z,47242.91
2019-06-27T09:27:09.641Z,47157.83
2019-06-27T09:29:38.039Z,46650.46
2019-06-27T09:32:06.447Z,46974.52
2019-06-27T09:34:34.828Z,45708.80
2019-06-27T09:37:03.487Z,46039.87
2019-06-27T09:39:32.168Z,45465.82
2019-06-27T09:42:00.567Z,45648.05
2019-06-27T09:44:28.950Z,45615.66
2019-06-27T09:46:57.351Z,45518.47
2019-06-27T09:49:26.127Z,44510.28
2019-06-27T09:51:54.519Z,44321.02
2019-06-27T09:54:22.913Z,44874.65
2019-06-27T09:56:51.309Z,44094.32
2019-06-27T09:59:19.708Z,44128.73
2019-06-27T10:01:48.089Z,43856.51
2019-06-27T10:04:16.527Z,42858.86
2019-06-27T10:06:45.191Z,43918.23
2019-06-27T10:09:13.582Z,42885.16
2019-06-27T10:11:42.218Z,42737.46
2019-06-27T10:14:10.832Z,43322.24
2019-06-27T10:16:39.284Z,42314.61
2019-06-27T10:19:09.420Z,42730.37
2019-06-27T10:21:39.576Z,42422.85
2019-06-27T10:24:07.963Z,42027.34
2019-06-27T10:26:36.383Z,41669.29
2019-06-27T10:29:05.051Z,40488.18
2019-06-27T10:31:33.469Z,40578.17
2019-06-27T10:34:01.852Z,40360.79
2019-06-27T10:36:30.248Z,40286.98
2019-06-27T10:38:59.093Z,40215.20
2019-06-27T10:41:27.530Z,39921.00
2019-06-27T10:43:58.578Z,38504.95
2019-06-27T10:46:26.519Z,38236.14
2019-06-27T10:48:54.930Z,38712.12
2019-06-27T10:51:23.381Z,39454.99
2019-06-27T10:53:51.762Z,39215.44
2019-06-27T10:56:20.423Z,39784.53
2019-06-27T10:58:49.128Z,38640.36
2019-06-27T11:01:17.530Z,38516.06
2019-06-27T11:03:46.190Z,37895.62
2019-06-27T11:06:14.592Z,37845.10
2019-06-27T11:08:43.276Z,38508.99
2019-06-27T11:11:11.673Z,39157.83
2019-06-27T11:13:40.071Z,39512.61
2019-06-27T11:16:08.727Z,39009.25
2019-06-27T11:18:37.144Z,38682.81
2019-06-27T11:21:05.515Z,38124.99
2019-06-27T11:23:33.921Z,38376.61
2019-06-27T11:26:02.353Z,38575.69
2019-06-27T11:28:30.951Z,38563.56
2019-06-27T11:30:59.351Z,37702.64
2019-06-27T11:33:32.671Z,38521.11
2019-06-27T11:35:57.879Z,39365.03
2019-06-27T11:38:26.271Z,38741.43
2019-06-27T11:40:54.641Z,38220.99
2019-06-27T11:43:23.059Z,37392.47
2019-06-27T11:45:51.442Z,37131.82
2019-06-27T11:48:19.835Z,36191.43
2019-06-27T11:50:48.224Z,37320.74
2019-06-27T11:53:16.944Z,37952.20
2019-06-27T11:55:45.352Z,37712.74
2019-06-27T11:58:13.731Z,38044.15
2019-06-27T12:00:42.171Z,36593.42
2019-06-27T12:03:10.524Z,37438.94
2019-06-27T12:05:38.920Z,36257.08
2019-06-27T12:08:10.790Z,35507.73
2019-06-27T12:10:37.446Z,37011.61
2019-06-27T12:13:05.913Z,38568.61
2019-06-27T12:15:34.256Z,38444.31
2019-06-27T12:18:02.912Z,38069.41
2019-06-27T12:20:31.306Z,37134.86
2019-06-27T12:22:59.774Z,38010.81
2019-06-27T12:25:28.164Z,38743.45
2019-06-27T12:27:58.422Z,37979.48
2019-06-27T12:30:27.128Z,39572.25
2019-06-27T12:32:55.516Z,38710.10
2019-06-27T12:35:23.915Z,37505.62
2019-06-27T12:37:52.369Z,40192.96
2019-06-27T12:40:21.056Z,39330.66
2019-06-27T12:42:49.445Z,40223.29
2019-06-27T12:45:18.068Z,39326.62
2019-06-27T12:47:46.708Z,39286.19
2019-06-27T12:50:17.883Z,38315.97
2019-06-27T12:52:46.365Z,40079.73
2019-06-27T12:55:14.888Z,39828.00
2019-06-27T12:57:43.299Z,38575.69
2019-06-27T13:00:11.950Z,39772.40
2019-06-27T13:02:40.474Z,40638.83
2019-06-27T13:05:11.225Z,39754.21
2019-06-27T13:07:39.539Z,39756.23
2019-06-27T13:10:08.252Z,40559.96
2019-06-27T13:12:36.865Z,40772.30
2019-06-27T13:15:06.192Z,40870.39
2019-06-27T13:17:34.587Z,40311.25
2019-06-27T13:20:04.113Z,39856.31
2019-06-27T13:22:32.490Z,39866.41
2019-06-27T13:25:00.885Z,40656.02
2019-06-27T13:27:29.269Z,40679.28
2019-06-27T13:29:57.658Z,40416.39
2019-06-27T13:32:26.286Z,39621.78
2019-06-27T13:34:54.677Z,43965.80
2019-06-27T13:37:23.086Z,43901.04
2019-06-27T13:39:51.481Z,44640.84
2019-06-27T13:42:20.206Z,44444.49
2019-06-27T13:44:48.645Z,47710.86
2019-06-27T13:47:20.215Z,49266.01
2019-06-27T13:49:47.584Z,50040.27
2019-06-27T13:52:16.222Z,50692.03
2019-06-27T13:54:44.616Z,49891.29
2019-06-27T13:57:13.007Z,45548.84
2019-06-27T13:59:41.406Z,45469.87
2019-06-27T14:02:09.815Z,45511.38
2019-06-27T14:04:38.204Z,49748.39
2019-06-27T14:07:06.617Z,49233.59
2019-06-27T14:09:51.074Z,49939.93
2019-06-27T14:12:05.450Z,51823.47
2019-06-27T14:14:33.838Z,52907.57
2019-06-27T14:17:03.785Z,53994.00
2019-06-27T14:19:32.172Z,48594.23
2019-06-27T14:22:00.910Z,52415.68
2019-06-27T14:24:29.311Z,51312.46
2019-06-27T14:26:57.707Z,52986.69
2019-06-27T14:29:26.379Z,51414.86
2019-06-27T14:31:58.073Z,50605.86
2019-06-27T14:34:26.820Z,50665.67
2019-06-27T14:36:58.000Z,51036.70
2019-06-27T14:39:26.402Z,50971.82
2019-06-27T14:41:54.876Z,51128.95
2019-06-27T14:44:23.250Z,51107.66
2019-06-27T14:46:51.929Z,50671.75
2019-06-27T14:49:20.339Z,50711.29
2019-06-27T14:51:48.802Z,51095.50
2019-06-27T14:54:17.165Z,51327.66
2019-06-27T14:56:45.563Z,51176.60
2019-06-27T14:59:14.691Z,51196.88
2019-06-27T15:01:43.231Z,50486.25
2019-06-27T15:04:11.629Z,49581.17
2019-06-27T15:06:40.099Z,49913.59
2019-06-27T15:09:08.486Z,50193.32
2019-06-27T15:11:36.896Z,50652.49
2019-06-27T15:14:05.569Z,51614.60
2019-06-27T15:16:33.959Z,51605.47
2019-06-27T15:19:02.358Z,51620.68
2019-06-27T15:21:30.740Z,50346.37
2019-06-27T15:23:59.145Z,52022.22
2019-06-27T15:26:27.900Z,51755.54
2019-06-27T15:28:56.280Z,51968.48
2019-06-27T15:31:24.670Z,51714.98
2019-06-27T15:33:53.097Z,51354.03
2019-06-27T15:36:21.489Z,50195.35
2019-06-27T15:38:49.856Z,50963.71
2019-06-27T15:41:18.278Z,49710.89
2019-06-27T15:43:46.703Z,49611.57
2019-06-27T15:46:15.102Z,47901.29
2019-06-27T15:48:43.484Z,50149.73
2019-06-27T15:51:11.877Z,50329.14
2019-06-27T15:53:40.517Z,49156.57
2019-06-27T15:56:08.902Z,53237.22
2019-06-27T15:58:37.316Z,54280.11
2019-06-27T16:01:05.711Z,54485.07
2019-06-27T16:03:34.099Z,54294.32
2019-06-27T16:06:09.275Z,54420.13
2019-06-27T16:08:34.519Z,54688.01
2019-06-27T16:11:05.374Z,54508.41
2019-06-27T16:13:33.752Z,54602.77
2019-06-27T16:16:02.140Z,53343.73
2019-06-27T16:18:30.550Z,54077.19
2019-06-27T16:20:59.205Z,54147.20
2019-06-27T16:23:27.601Z,54582.48
2019-06-27T16:25:55.986Z,53682.55
2019-06-27T16:28:26.891Z,51856.93
2019-06-27T16:30:54.568Z,53199.69
2019-06-27T16:33:23.196Z,52650.97
2019-06-27T16:35:54.699Z,53229.11
2019-06-27T16:38:23.103Z,53237.22
2019-06-27T16:40:51.853Z,53309.24
2019-06-27T16:43:20.602Z,53803.27
2019-06-27T16:45:50.380Z,53361.99
2019-06-27T16:48:25.826Z,53125.64
2019-06-27T16:50:51.703Z,53307.21
2019-06-27T16:53:20.081Z,53163.18
2019-06-27T16:55:48.470Z,52996.83
2019-06-27T16:58:20.243Z,52405.54
2019-06-27T17:00:50.515Z,53318.37
2019-06-27T17:03:20.509Z,52007.01
2019-06-27T17:05:48.913Z,53585.16
2019-06-27T17:08:17.553Z,53344.75
2019-06-27T17:10:46.005Z,53863.12
2019-06-27T17:13:14.418Z,53978.78
2019-06-27T17:15:45.250Z,54105.60
2019-06-27T17:18:13.626Z,54180.68
2019-06-27T17:20:42.111Z,53739.36
2019-06-27T17:23:10.823Z,53775.88
2019-06-27T17:25:39.206Z,54149.23
2019-06-27T17:28:09.459Z,54461.73
2019-06-27T17:30:45.703Z,53892.55
2019-06-27T17:33:16.915Z,54052.84
2019-06-27T17:35:47.030Z,52863.96
2019-06-27T17:38:15.446Z,51163.42
2019-06-27T17:40:43.902Z,52412.64
2019-06-27T17:43:12.654Z,54167.49
2019-06-27T17:45:41.018Z,54569.29
2019-06-27T17:48:09.404Z,54463.76
2019-06-27T17:50:37.908Z,54783.39
2019-06-27T17:53:06.287Z,55036.07
2019-06-27T17:55:34.833Z,55107.11
2019-06-27T17:58:03.260Z,55023.89
2019-06-27T18:00:31.760Z,55026.94
2019-06-27T18:03:00.106Z,55071.59
2019-06-27T18:05:28.505Z,54989.39
2019-06-27T18:07:56.885Z,54942.71
2019-06-27T18:10:25.295Z,54969.09
2019-06-27T18:12:53.740Z,54968.08
2019-06-27T18:15:22.084Z,54890.96
2019-06-27T18:17:50.898Z,54835.14
2019-06-27T18:20:19.355Z,54841.23
2019-06-27T18:22:47.852Z,54728.60
2019-06-27T18:25:16.305Z,54743.82
2019-06-27T18:27:45.027Z,54702.21
2019-06-27T18:30:13.753Z,54696.12
2019-06-27T18:32:42.142Z,54914.30
2019-06-27T18:35:11.061Z,54857.47
2019-06-27T18:37:39.780Z,54914.30
2019-06-27T18:40:08.621Z,54878.78
2019-06-27T18:42:37.179Z,54918.36
2019-06-27T18:45:08.679Z,54937.64
2019-06-27T18:47:37.065Z,55085.80
2019-06-27T18:50:09.171Z,55192.36
2019-06-27T18:52:37.552Z,55288.77
2019-06-27T18:55:06.368Z,55201.49
2019-06-27T18:57:34.758Z,55155.82
2019-06-27T19:00:04.009Z,55226.86
2019-06-27T19:02:32.394Z,55078.70
2019-06-27T19:05:00.790Z,55104.06
2019-06-27T19:07:44.224Z,54921.40
2019-06-27T19:09:59.364Z,55035.06
2019-06-27T19:12:27.755Z,55075.65
2019-06-27T19:14:59.451Z,55083.77
2019-06-27T19:17:33.973Z,55021.86
2019-06-27T19:20:08.489Z,54996.49
2019-06-27T19:22:55.499Z,55188.30
2019-06-27T19:25:25.667Z,55239.04
2019-06-27T19:27:54.473Z,55284.71
2019-06-27T19:30:26.375Z,55222.80
2019-06-27T19:32:54.948Z,55309.06
2019-06-27T19:35:23.322Z,55374.02
2019-06-27T19:38:01.328Z,55228.89
2019-06-27T19:40:22.567Z,55320.23
2019-06-27T19:42:51.022Z,55320.23
2019-06-27T19:45:19.462Z,55319.21
2019-06-27T19:47:47.862Z,55347.63
2019-06-27T19:50:16.767Z,55235.99
2019-06-27T19:52:45.150Z,55197.43
2019-06-27T19:55:14.085Z,55260.35
2019-06-27T19:57:42.464Z,55163.94
2019-06-27T20:00:12.967Z,55042.16
2019-06-27T20:02:41.389Z,55091.89
2019-06-27T20:05:10.006Z,55014.76
2019-06-27T20:07:38.391Z,54943.73
2019-06-27T20:10:11.694Z,54946.77
2019-06-27T20:12:38.659Z,54854.43
2019-06-27T20:15:07.707Z,54851.38
2019-06-27T20:17:36.081Z,54768.17
2019-06-27T20:20:05.303Z,54692.07
2019-06-27T20:22:33.994Z,54651.48
2019-06-27T20:25:02.395Z,54738.74
2019-06-27T20:27:30.782Z,54622.05
2019-06-27T20:29:59.176Z,54646.40
2019-06-27T20:32:27.566Z,54636.26
2019-06-27T20:34:55.964Z,54596.68
2019-06-27T20:37:26.985Z,54664.67
2019-06-27T20:39:54.448Z,54548.99
2019-06-27T20:42:22.852Z,54522.61
2019-06-27T20:44:51.228Z,54473.91
2019-06-27T20:47:19.607Z,54473.91
2019-06-27T20:49:49.819Z,54472.89
2019-06-27T20:52:18.691Z,54488.11
2019-06-27T20:54:47.065Z,54463.76
2019-06-27T20:57:15.467Z,54478.98
2019-06-27T20:59:43.856Z,54418.10
2019-06-27T21:02:12.351Z,54463.76
2019-06-27T21:04:40.756Z,54459.70
2019-06-27T21:07:12.305Z,54434.34
2019-06-27T21:09:41.526Z,54396.79
2019-06-27T21:12:10.315Z,54464.78
2019-06-27T21:14:44.596Z,54433.32
2019-06-27T21:17:13.335Z,54411.00
2019-06-27T21:19:43.249Z,54467.82
2019-06-27T21:22:11.629Z,54490.14
2019-06-27T21:24:40.221Z,54470.86
2019-06-27T21:27:08.607Z,54480.00
2019-06-27T21:29:37.220Z,54446.51
2019-06-27T21:32:05.642Z,54515.51
2019-06-27T21:34:34.120Z,54465.79
2019-06-27T21:37:02.567Z,54527.68
2019-06-27T21:39:31.124Z,54532.76
2019-06-27T21:41:59.520Z,54577.40
2019-06-27T21:44:28.146Z,54594.65
2019-06-27T21:46:56.537Z,54731.64
2019-06-27T21:49:25.030Z,54652.49
2019-06-27T21:51:53.414Z,54739.76
2019-06-27T21:54:21.792Z,54739.76
2019-06-27T21:56:50.258Z,54779.33
2019-06-27T21:59:18.635Z,54721.49
2019-06-27T22:01:47.568Z,54764.11
2019-06-27T22:04:15.954Z,54773.25
2019-06-27T22:06:44.675Z,54840.22
2019-06-27T22:09:23.929Z,54890.96
2019-06-27T22:11:43.948Z,54817.89
2019-06-27T22:14:12.345Z,54875.73
2019-06-27T22:16:40.725Z,54903.13
2019-06-27T22:19:09.507Z,54809.78
2019-06-27T22:21:37.966Z,54861.53
2019-06-27T22:24:06.412Z,54961.99
2019-06-27T22:26:35.350Z,54939.66
2019-06-27T22:29:03.910Z,54986.35
2019-06-27T22:31:32.646Z,54989.39
2019-06-27T22:34:01.037Z,54964.02
2019-06-27T22:36:29.438Z,55022.88
2019-06-27T22:39:15.543Z,55069.56
2019-06-27T22:42:01.943Z,55062.46
2019-06-27T22:44:48.108Z,55046.22
2019-06-27T22:47:34.842Z,55081.74
2019-06-27T22:50:05.794Z,55131.46
2019-06-27T22:52:51.002Z,55135.52
2019-06-27T22:55:26.474Z,55177.13
2019-06-27T22:57:54.847Z,55153.79
2019-06-27T23:00:23.251Z,55148.71
2019-06-27T23:02:51.660Z,55178.15
2019-06-27T23:05:20.021Z,55159.88
2019-06-27T23:07:48.551Z,55257.30
2019-06-27T23:10:16.959Z,55198.45
2019-06-27T23:12:45.351Z,55231.93
2019-06-27T23:15:13.837Z,55169.01
2019-06-27T23:17:42.503Z,55163.94
2019-06-27T23:20:11.240Z,55267.45
2019-06-27T23:22:39.712Z,55249.19
2019-06-27T23:25:08.159Z,55314.14
2019-06-27T23:27:36.784Z,55279.63
2019-06-27T23:30:06.900Z,55260.35
2019-06-27T23:32:35.293Z,55305.00
2019-06-27T23:35:05.096Z,55329.36
2019-06-27T23:37:33.685Z,55358.79
2019-06-27T23:40:13.519Z,55404.46
2019-06-27T23:42:32.434Z,55359.81
2019-06-27T23:45:00.838Z,55431.87
2019-06-27T23:47:29.255Z,55362.85
2019-06-27T23:49:57.628Z,55426.79
2019-06-27T23:52:26.047Z,55473.48
2019-06-27T23:54:54.433Z,55458.25
2019-06-27T23:57:22.828Z,55456.22
2019-06-27T23:59:51.462Z,55460.29
